createdAt,value
2023-02-07T00:00:27.602Z,16.60
2023-02-07T00:02:56.965Z,19.67
2023-02-07T00:05:24.339Z,14.52
2023-02-07T00:07:51.802Z,16.38
2023-02-07T00:10:19.148Z,8.45
2023-02-07T00:12:46.391Z,9.27
2023-02-07T00:15:13.702Z,5.78
2023-02-07T00:17:40.941Z,4.43
2023-02-07T00:20:08.729Z,5.47
2023-02-07T00:22:35.959Z,4.80
2023-02-07T00:25:03.532Z,4.53
2023-02-07T00:27:30.959Z,5.00
2023-02-07T00:29:58.289Z,4.93
2023-02-07T00:32:25.582Z,4.40
2023-02-07T00:34:52.918Z,4.20
2023-02-07T00:37:20.189Z,4.35
2023-02-07T00:39:48.014Z,3.85
2023-02-07T00:42:15.387Z,4.05
2023-02-07T00:44:42.802Z,4.57
2023-02-07T00:47:10.144Z,4.13
2023-02-07T00:49:37.379Z,3.97
2023-02-07T00:52:04.930Z,4.30
2023-02-07T00:54:32.338Z,4.55
2023-02-07T00:57:00.038Z,3.88
2023-02-07T00:59:27.351Z,4.00
2023-02-07T01:01:54.731Z,4.82
2023-02-07T01:04:22.093Z,4.57
2023-02-07T01:06:49.389Z,4.20
2023-02-07T01:09:16.836Z,3.33
2023-02-07T01:11:44.273Z,3.35
2023-02-07T01:14:11.917Z,4.32
2023-02-07T01:16:39.286Z,5.40
2023-02-07T01:19:07.849Z,5.13
2023-02-07T01:21:35.131Z,4.82
2023-02-07T01:24:02.374Z,5.53
2023-02-07T01:26:29.999Z,5.07
2023-02-07T01:28:57.370Z,4.05
2023-02-07T01:31:24.774Z,3.47
2023-02-07T01:33:56.470Z,4.50
2023-02-07T01:36:24.280Z,4.72
2023-02-07T01:38:53.692Z,3.83
2023-02-07T01:41:22.637Z,3.58
2023-02-07T01:44:06.556Z,4.28
2023-02-07T01:46:34.932Z,3.95
2023-02-07T01:49:08.673Z,4.18
2023-02-07T01:51:36.524Z,3.60
2023-02-07T01:54:06.479Z,5.10
2023-02-07T01:56:34.027Z,4.18
2023-02-07T01:59:02.567Z,3.90
2023-02-07T02:01:31.753Z,3.83
2023-02-07T02:03:59.072Z,4.18
2023-02-07T02:06:27.281Z,4.15
2023-02-07T02:08:58.785Z,3.47
2023-02-07T02:11:30.611Z,4.40
2023-02-07T02:14:01.951Z,3.95
2023-02-07T02:19:05.257Z,2.78
2023-02-07T02:21:58.718Z,8.95
2023-02-07T02:24:44.818Z,24.15
2023-02-07T02:27:26.469Z,20.10
2023-02-07T02:30:04.738Z,24.73
2023-02-07T02:32:49.614Z,14.82
2023-02-07T02:35:31.520Z,13.85
2023-02-07T02:38:07.460Z,14.80
2023-02-07T02:40:57.190Z,8.70
2023-02-07T02:43:46.642Z,4.60
2023-02-07T02:46:25.412Z,3.33
2023-02-07T02:48:53.044Z,3.70
2023-02-07T02:51:20.616Z,2.67
2023-02-07T02:53:54.592Z,4.25
2023-02-07T02:56:50.042Z,8.30
2023-02-07T02:59:49.542Z,6.10
2023-02-07T03:02:34.716Z,4.82
2023-02-07T03:05:13.109Z,4.30
2023-02-07T03:07:49.503Z,4.53
2023-02-07T03:10:32.555Z,5.45
2023-02-07T03:13:31.475Z,5.00
2023-02-07T03:16:13.746Z,4.32
2023-02-07T03:19:33.435Z,4.13
2023-02-07T03:22:02.885Z,4.45
2023-02-07T03:24:31.985Z,4.18
2023-02-07T03:27:01.382Z,5.35
2023-02-07T03:29:29.259Z,4.03
2023-02-07T03:31:58.195Z,4.38
2023-02-07T03:34:31.876Z,4.45
2023-02-07T03:37:03.663Z,3.22
2023-02-07T03:39:31.199Z,5.15
2023-02-07T03:42:05.018Z,3.67
2023-02-07T03:44:33.532Z,3.70
2023-02-07T03:47:00.741Z,6.78
2023-02-07T03:49:27.994Z,4.65
2023-02-07T03:51:55.335Z,6.22
2023-02-07T03:54:22.562Z,7.20
2023-02-07T03:56:49.812Z,6.38
2023-02-07T03:59:17.070Z,10.32
2023-02-07T04:01:44.715Z,7.07
2023-02-07T04:04:12.009Z,5.22
2023-02-07T04:06:40.304Z,4.57
2023-02-07T04:09:08.395Z,4.05
2023-02-07T04:11:36.905Z,4.72
2023-02-07T04:14:04.165Z,4.10
2023-02-07T04:16:31.738Z,4.95
2023-02-07T04:18:59.185Z,4.90
2023-02-07T04:21:26.536Z,3.78
2023-02-07T04:23:53.753Z,4.43
2023-02-07T04:26:21.327Z,4.03
2023-02-07T04:28:49.641Z,6.30
2023-02-07T04:31:16.887Z,9.82
2023-02-07T04:33:44.135Z,9.85
2023-02-07T04:36:11.374Z,5.60
2023-02-07T04:38:39.086Z,4.15
2023-02-07T04:41:06.507Z,5.70
2023-02-07T04:43:35.072Z,3.47
2023-02-07T04:46:02.776Z,3.97
2023-02-07T04:48:30.357Z,4.90
2023-02-07T04:50:57.793Z,3.65
2023-02-07T04:53:25.298Z,3.80
2023-02-07T04:55:53.298Z,4.13
2023-02-07T04:58:21.189Z,3.95
2023-02-07T05:00:48.578Z,4.38
2023-02-07T05:03:15.877Z,3.53
2023-02-07T05:05:44.036Z,4.18
2023-02-07T05:08:11.449Z,4.88
2023-02-07T05:10:38.894Z,4.18
2023-02-07T05:13:06.515Z,3.33
2023-02-07T05:15:33.889Z,4.13
2023-02-07T05:18:01.266Z,5.18
2023-02-07T05:20:28.864Z,4.60
2023-02-07T05:22:56.417Z,4.75
2023-02-07T05:25:23.648Z,3.88
2023-02-07T05:27:50.937Z,4.88
2023-02-07T05:30:18.638Z,3.55
2023-02-07T05:33:04.196Z,3.50
2023-02-07T05:35:34.939Z,4.88
2023-02-07T05:38:02.756Z,4.40
2023-02-07T05:40:30.146Z,5.28
2023-02-07T05:42:57.473Z,4.30
2023-02-07T05:45:24.735Z,4.85
2023-02-07T05:47:53.447Z,4.75
2023-02-07T05:50:20.841Z,4.95
2023-02-07T05:52:48.091Z,4.15
2023-02-07T05:55:16.501Z,4.25
2023-02-07T05:57:44.401Z,4.55
2023-02-07T06:00:13.667Z,4.63
2023-02-07T06:02:41.344Z,4.95
2023-02-07T06:05:16.193Z,5.15
2023-02-07T06:07:44.861Z,5.25
2023-02-07T06:10:12.435Z,5.55
2023-02-07T06:12:39.794Z,4.85
2023-02-07T06:15:07.431Z,5.20
2023-02-07T06:17:35.765Z,5.72
2023-02-07T06:20:03.103Z,4.78
2023-02-07T06:22:30.577Z,4.53
2023-02-07T06:24:57.842Z,5.38
2023-02-07T06:27:25.072Z,6.00
2023-02-07T06:29:52.325Z,7.03
2023-02-07T06:32:19.573Z,5.20
2023-02-07T06:34:46.806Z,6.05
2023-02-07T06:37:14.055Z,5.80
2023-02-07T06:39:41.803Z,11.52
2023-02-07T06:42:09.071Z,8.02
2023-02-07T06:44:37.827Z,9.82
2023-02-07T06:47:05.513Z,6.70
2023-02-07T06:49:33.642Z,6.50
2023-02-07T06:52:00.935Z,20.85
2023-02-07T06:54:28.247Z,56.28
2023-02-07T06:56:55.446Z,52.28
2023-02-07T06:59:22.693Z,38.53
2023-02-07T07:01:49.985Z,50.40
2023-02-07T07:04:18.511Z,22.70
2023-02-07T07:06:45.836Z,12.65
2023-02-07T07:09:13.756Z,10.73
2023-02-07T07:11:43.353Z,5.65
2023-02-07T07:14:11.290Z,5.13
2023-02-07T07:16:38.729Z,5.30
2023-02-07T07:19:08.381Z,6.95
2023-02-07T07:21:36.015Z,3.70
2023-02-07T07:24:03.930Z,5.30
2023-02-07T07:26:47.022Z,6.63
2023-02-07T07:29:16.994Z,6.90
2023-02-07T07:31:44.876Z,5.85
2023-02-07T07:34:12.189Z,9.68
2023-02-07T07:36:39.540Z,6.95
2023-02-07T07:39:08.984Z,5.85
2023-02-07T07:41:36.470Z,5.97
2023-02-07T07:44:04.383Z,6.72
2023-02-07T07:46:32.319Z,6.32
2023-02-07T07:48:59.550Z,5.93
2023-02-07T07:51:26.899Z,4.97
2023-02-07T07:53:54.251Z,6.75
2023-02-07T07:56:21.576Z,4.38
2023-02-07T07:58:50.130Z,5.60
2023-02-07T08:01:17.551Z,4.97
2023-02-07T08:03:44.840Z,5.30
2023-02-07T08:06:12.627Z,9.52
2023-02-07T08:08:39.891Z,7.18
2023-02-07T08:11:08.633Z,7.07
2023-02-07T08:13:36.219Z,7.35
2023-02-07T08:16:03.955Z,6.60
2023-02-07T08:18:31.619Z,10.10
2023-02-07T08:20:58.832Z,8.00
2023-02-07T08:23:26.113Z,12.82
2023-02-07T08:25:53.427Z,29.00
2023-02-07T08:28:21.127Z,8.90
2023-02-07T08:30:48.436Z,10.02
2023-02-07T08:33:16.568Z,23.17
2023-02-07T08:35:43.852Z,14.35
2023-02-07T08:38:11.218Z,14.75
2023-02-07T08:40:39.739Z,8.95
2023-02-07T08:43:12.347Z,9.45
2023-02-07T08:45:41.058Z,10.15
2023-02-07T08:48:08.908Z,9.95
2023-02-07T08:50:36.373Z,8.32
2023-02-07T08:53:03.958Z,8.63
2023-02-07T08:55:31.243Z,8.55
2023-02-07T08:57:58.543Z,7.68
2023-02-07T09:00:25.892Z,7.80
2023-02-07T09:02:53.753Z,8.50
2023-02-07T09:05:21.044Z,8.90
2023-02-07T09:07:48.511Z,8.07
2023-02-07T09:10:17.987Z,7.72
2023-02-07T09:12:45.513Z,7.93
2023-02-07T09:15:12.748Z,6.78
2023-02-07T09:17:41.132Z,7.72
2023-02-07T09:20:08.897Z,9.10
2023-02-07T09:22:57.278Z,7.88
2023-02-07T09:25:24.707Z,6.90
2023-02-07T09:27:52.062Z,8.95
2023-02-07T09:30:19.482Z,11.18
2023-02-07T09:32:46.756Z,9.85
2023-02-07T09:35:14.201Z,10.73
2023-02-07T09:37:49.441Z,9.90
2023-02-07T09:40:19.218Z,10.82
2023-02-07T09:43:02.528Z,9.27
2023-02-07T09:45:31.778Z,9.00
2023-02-07T09:48:02.391Z,6.70
2023-02-07T09:50:32.352Z,8.07
2023-02-07T09:53:15.671Z,5.97
2023-02-07T09:56:00.083Z,5.97
2023-02-07T09:58:40.002Z,8.98
2023-02-07T10:01:15.871Z,6.38
2023-02-07T10:03:49.052Z,6.22
2023-02-07T10:06:30.167Z,6.57
2023-02-07T10:08:59.542Z,10.70
2023-02-07T10:11:34.519Z,10.32
2023-02-07T10:14:21.995Z,9.45
2023-02-07T10:17:29.649Z,10.18
2023-02-07T10:20:29.386Z,10.07
2023-02-07T10:23:21.695Z,7.40
2023-02-07T10:25:48.793Z,6.20
2023-02-07T10:28:16.100Z,6.38
2023-02-07T10:30:49.577Z,6.18
2023-02-07T10:33:22.074Z,9.93
2023-02-07T10:35:49.352Z,10.35
2023-02-07T10:38:28.346Z,6.72
2023-02-07T10:41:20.546Z,10.15
2023-02-07T10:43:47.791Z,36.28
2023-02-07T10:46:16.158Z,22.45
2023-02-07T10:48:43.589Z,19.90
2023-02-07T10:51:27.817Z,14.48
2023-02-07T10:54:30.597Z,15.32
2023-02-07T10:57:02.235Z,8.50
2023-02-07T10:59:45.653Z,16.40
2023-02-07T11:02:34.919Z,12.85
2023-02-07T11:05:02.833Z,7.35
2023-02-07T11:07:39.393Z,6.00
2023-02-07T11:10:40.110Z,5.53
2023-02-07T11:13:18.488Z,6.55
2023-02-07T11:15:53.296Z,6.55
2023-02-07T11:18:28.820Z,7.65
2023-02-07T11:20:56.529Z,6.78
2023-02-07T11:23:23.744Z,9.18
2023-02-07T11:25:53.930Z,8.05
2023-02-07T11:28:26.279Z,7.35
2023-02-07T11:31:14.600Z,6.97
2023-02-07T11:33:41.933Z,6.25
2023-02-07T11:36:12.378Z,6.28
2023-02-07T11:38:41.712Z,6.40
2023-02-07T11:41:27.516Z,6.47
2023-02-07T11:43:59.834Z,8.05
2023-02-07T11:46:38.419Z,7.05
2023-02-07T11:49:07.434Z,6.13
2023-02-07T11:51:35.314Z,6.10
2023-02-07T11:54:03.464Z,5.40
2023-02-07T11:56:45.386Z,5.55
2023-02-07T11:59:18.486Z,4.57
2023-02-07T12:01:51.429Z,5.03
2023-02-07T12:04:21.241Z,5.20
2023-02-07T12:06:55.160Z,6.03
2023-02-07T12:09:36.057Z,6.00
2023-02-07T12:12:04.909Z,6.57
2023-02-07T12:14:39.640Z,5.47
2023-02-07T12:17:09.999Z,6.50
2023-02-07T12:19:45.380Z,5.53
2023-02-07T12:22:18.810Z,6.28
2023-02-07T12:24:54.872Z,6.30
2023-02-07T12:27:23.527Z,13.82
2023-02-07T12:30:09.465Z,9.88
2023-02-07T12:32:55.886Z,20.02
2023-02-07T12:36:03.202Z,15.18
2023-02-07T12:38:37.784Z,21.85
2023-02-07T12:41:48.564Z,21.23
2023-02-07T12:44:34.600Z,14.60
2023-02-07T12:47:08.762Z,7.97
2023-02-07T12:50:08.186Z,6.88
2023-02-07T12:52:48.571Z,6.28
2023-02-07T12:55:48.238Z,4.80
2023-02-07T12:58:39.281Z,5.07
2023-02-07T13:01:28.980Z,6.32
2023-02-07T13:04:09.837Z,5.18
2023-02-07T13:06:49.502Z,5.93
2023-02-07T13:09:33.932Z,6.35
2023-02-07T13:12:01.070Z,6.40
2023-02-07T13:14:50.380Z,6.60
2023-02-07T13:17:40.660Z,5.45
2023-02-07T13:20:18.713Z,6.28
2023-02-07T13:23:00.603Z,7.07
2023-02-07T13:25:30.569Z,5.55
2023-02-07T13:27:59.595Z,6.03
2023-02-07T13:30:27.305Z,6.20
2023-02-07T13:32:54.642Z,5.15
2023-02-07T13:35:26.119Z,5.18
2023-02-07T13:38:07.254Z,6.80
2023-02-07T13:40:56.180Z,7.03
2023-02-07T13:43:43.933Z,7.20
2023-02-07T13:46:32.329Z,7.47
2023-02-07T13:49:21.230Z,6.57
2023-02-07T13:52:13.277Z,4.20
2023-02-07T13:55:25.740Z,7.20
2023-02-07T13:58:12.757Z,3.70
2023-02-07T14:00:50.241Z,4.53
2023-02-07T14:03:21.246Z,5.43
2023-02-07T14:05:49.834Z,4.57
2023-02-07T14:08:16.980Z,5.05
2023-02-07T14:10:50.782Z,4.28
2023-02-07T14:13:27.564Z,5.20
2023-02-07T14:15:56.386Z,9.52
2023-02-07T14:18:38.668Z,13.40
2023-02-07T14:21:18.680Z,10.68
2023-02-07T14:23:49.898Z,11.30
2023-02-07T14:26:39.270Z,10.85
2023-02-07T14:29:24.774Z,14.35
2023-02-07T14:31:56.589Z,8.65
2023-02-07T14:34:24.931Z,9.07
2023-02-07T14:36:55.021Z,6.28
2023-02-07T14:39:27.923Z,6.28
2023-02-07T14:41:55.653Z,6.35
2023-02-07T14:44:35.435Z,5.00
2023-02-07T14:47:03.438Z,4.22
2023-02-07T14:49:43.304Z,4.78
2023-02-07T14:52:31.185Z,3.67
2023-02-07T14:55:06.994Z,4.30
2023-02-07T14:57:53.526Z,3.95
2023-02-07T15:00:31.982Z,3.55
2023-02-07T15:03:05.340Z,3.47
2023-02-07T15:05:34.594Z,4.95
2023-02-07T15:08:19.520Z,4.00
2023-02-07T15:10:56.554Z,3.92
2023-02-07T15:13:26.948Z,4.30
2023-02-07T15:16:00.273Z,5.82
2023-02-07T15:18:30.494Z,4.13
2023-02-07T15:20:59.134Z,3.53
2023-02-07T15:23:27.313Z,3.97
2023-02-07T15:25:54.621Z,3.90
2023-02-07T15:28:31.992Z,6.68
2023-02-07T15:31:07.182Z,4.60
2023-02-07T15:33:59.699Z,6.80
2023-02-07T15:36:37.895Z,3.50
2023-02-07T15:39:07.500Z,3.70
2023-02-07T15:41:35.268Z,4.10
2023-02-07T15:44:04.210Z,3.53
2023-02-07T15:46:44.644Z,4.13
2023-02-07T15:49:26.401Z,3.25
2023-02-07T15:51:54.167Z,3.53
2023-02-07T15:54:22.410Z,3.28
2023-02-07T15:56:50.550Z,3.47
2023-02-07T15:59:27.110Z,4.15
2023-02-07T16:01:56.447Z,3.30
2023-02-07T16:04:27.415Z,3.70
2023-02-07T16:09:42.671Z,4.25
2023-02-07T16:12:45.262Z,3.67
2023-02-07T16:15:29.945Z,3.70
2023-02-07T16:17:57.688Z,3.15
2023-02-07T16:20:26.120Z,3.72
2023-02-07T16:22:58.188Z,4.32
2023-02-07T16:25:33.689Z,4.93
2023-02-07T16:28:01.578Z,3.95
2023-02-07T16:30:35.204Z,4.15
2023-02-07T16:33:06.278Z,3.78
2023-02-07T16:38:01.238Z,3.45
2023-02-07T16:40:28.670Z,4.13
2023-02-07T16:42:56.586Z,4.78
2023-02-07T16:45:28.712Z,3.15
2023-02-07T16:47:57.210Z,3.25
2023-02-07T16:50:26.011Z,4.75
2023-02-07T16:52:54.730Z,3.78
2023-02-07T16:55:22.215Z,4.57
2023-02-07T16:57:49.535Z,3.88
2023-02-07T17:00:22.239Z,3.65
2023-02-07T17:02:50.566Z,4.10
2023-02-07T17:05:18.532Z,3.25
2023-02-07T17:07:47.979Z,3.53
2023-02-07T17:10:25.992Z,4.00
2023-02-07T17:12:54.131Z,5.03
2023-02-07T17:15:21.769Z,3.75
2023-02-07T17:17:49.196Z,3.78
2023-02-07T17:20:30.414Z,3.40
2023-02-07T17:22:57.695Z,5.30
2023-02-07T17:25:27.819Z,4.57
2023-02-07T17:27:55.294Z,4.35
2023-02-07T17:30:27.320Z,3.83
2023-02-07T17:32:56.149Z,4.18
2023-02-07T17:35:24.061Z,4.40
2023-02-07T17:37:51.706Z,3.83
2023-02-07T17:40:29.461Z,4.30
2023-02-07T17:42:57.123Z,4.53
2023-02-07T17:45:25.069Z,3.17
2023-02-07T17:47:52.646Z,3.78
2023-02-07T17:50:22.281Z,3.40
2023-02-07T17:52:49.559Z,4.25
2023-02-07T17:55:18.043Z,4.05
2023-02-07T17:57:45.348Z,3.90
2023-02-07T18:00:16.440Z,4.00
2023-02-07T18:05:13.307Z,2.97
2023-02-07T18:07:40.688Z,4.18
2023-02-07T18:10:09.750Z,5.05
2023-02-07T18:12:37.545Z,3.20
2023-02-07T18:15:08.407Z,3.15
2023-02-07T18:17:36.874Z,3.60
2023-02-07T18:20:05.679Z,4.65
2023-02-07T18:22:33.293Z,4.05
2023-02-07T18:25:01.253Z,4.35
2023-02-07T18:27:28.475Z,4.07
2023-02-07T18:29:55.795Z,3.83
2023-02-07T18:32:23.699Z,3.60
2023-02-07T18:34:51.025Z,4.50
2023-02-07T18:37:18.272Z,4.00
2023-02-07T18:39:45.492Z,3.22
2023-02-07T18:42:15.852Z,3.70
2023-02-07T18:44:44.005Z,4.03
2023-02-07T18:47:11.672Z,3.05
2023-02-07T18:49:39.002Z,3.85
2023-02-07T18:52:06.417Z,4.40
2023-02-07T18:54:36.371Z,5.18
2023-02-07T18:57:03.616Z,6.65
2023-02-07T18:59:31.138Z,5.95
2023-02-07T19:01:58.425Z,4.53
2023-02-07T19:04:25.643Z,3.85
2023-02-07T19:06:53.276Z,3.92
2023-02-07T19:09:21.222Z,4.15
2023-02-07T19:11:50.205Z,4.38
2023-02-07T19:14:20.162Z,3.72
2023-02-07T19:16:49.465Z,3.97
2023-02-07T19:19:17.089Z,4.38
2023-02-07T19:21:45.265Z,3.70
2023-02-07T19:24:18.511Z,4.93
2023-02-07T19:26:47.118Z,3.85
2023-02-07T19:29:15.746Z,4.65
2023-02-07T19:31:43.832Z,3.88
2023-02-07T19:34:11.888Z,3.67
2023-02-07T19:36:39.820Z,4.10
2023-02-07T19:39:07.252Z,3.88
2023-02-07T19:41:35.254Z,3.95
2023-02-07T19:44:02.540Z,4.45
2023-02-07T19:46:30.251Z,3.72
2023-02-07T19:48:58.337Z,4.28
2023-02-07T19:51:27.795Z,3.75
2023-02-07T19:53:55.817Z,3.88
2023-02-07T19:56:24.411Z,4.28
2023-02-07T19:58:53.296Z,3.92
2023-02-07T20:01:21.682Z,5.93
2023-02-07T20:03:51.211Z,9.05
2023-02-07T20:06:24.727Z,8.88
2023-02-07T20:08:52.008Z,8.70
2023-02-07T20:11:19.752Z,6.35
2023-02-07T20:13:51.046Z,6.07
2023-02-07T20:16:21.644Z,4.40
2023-02-07T20:18:49.520Z,4.55
2023-02-07T20:21:19.154Z,5.43
2023-02-07T20:23:48.054Z,4.25
2023-02-07T20:26:29.756Z,4.97
2023-02-07T20:28:59.827Z,3.40
2023-02-07T20:31:27.337Z,4.25
2023-02-07T20:33:55.147Z,3.65
2023-02-07T20:36:23.011Z,4.13
2023-02-07T20:38:50.289Z,3.63
2023-02-07T20:41:36.046Z,3.45
2023-02-07T20:44:05.667Z,4.68
2023-02-07T20:46:34.679Z,4.32
2023-02-07T20:49:06.805Z,4.03
2023-02-07T20:51:34.391Z,4.45
2023-02-07T20:54:03.023Z,4.43
2023-02-07T20:56:32.729Z,3.63
2023-02-07T20:59:06.816Z,5.03
2023-02-07T21:01:34.861Z,4.88
2023-02-07T21:04:05.844Z,4.00
2023-02-07T21:06:34.508Z,3.65
2023-02-07T21:09:03.093Z,6.28
2023-02-07T21:11:36.068Z,10.05
2023-02-07T21:14:04.265Z,8.05
2023-02-07T21:16:32.773Z,7.25
2023-02-07T21:19:00.375Z,8.68
2023-02-07T21:21:29.305Z,7.90
2023-02-07T21:23:57.397Z,5.80
2023-02-07T21:26:26.728Z,5.10
2023-02-07T21:28:58.796Z,5.70
2023-02-07T21:31:26.187Z,4.85
2023-02-07T21:33:53.609Z,4.95
2023-02-07T21:36:25.834Z,4.53
2023-02-07T21:38:53.657Z,4.65
2023-02-07T21:41:25.460Z,3.67
2023-02-07T21:43:54.370Z,3.88
2023-02-07T21:46:23.755Z,4.07
2023-02-07T21:48:52.885Z,3.83
2023-02-07T21:51:24.190Z,4.32
2023-02-07T21:53:53.323Z,4.38
2023-02-07T21:56:23.422Z,5.45
2023-02-07T21:58:56.127Z,4.82
2023-02-07T22:01:23.771Z,9.10
2023-02-07T22:03:53.392Z,16.58
2023-02-07T22:06:21.117Z,12.00
2023-02-07T22:08:57.188Z,9.68
2023-02-07T22:11:25.895Z,6.95
2023-02-07T22:13:53.434Z,7.72
2023-02-07T22:16:22.262Z,6.15
2023-02-07T22:18:50.329Z,5.68
2023-02-07T22:21:23.197Z,5.75
2023-02-07T22:23:50.968Z,5.32
2023-02-07T22:26:18.755Z,3.72
2023-02-07T22:28:46.511Z,4.43
2023-02-07T22:31:24.557Z,4.93
2023-02-07T22:33:52.725Z,3.78
2023-02-07T22:36:24.966Z,4.20
2023-02-07T22:38:52.614Z,3.63
2023-02-07T22:41:19.984Z,4.40
2023-02-07T22:43:47.525Z,3.10
2023-02-07T22:46:16.844Z,3.88
2023-02-07T22:48:44.288Z,5.95
2023-02-07T22:51:18.577Z,6.63
2023-02-07T22:53:47.433Z,5.10
2023-02-07T22:56:15.064Z,5.70
2023-02-07T22:58:42.454Z,7.95
2023-02-07T23:01:21.888Z,6.40
2023-02-07T23:03:49.501Z,4.95
2023-02-07T23:06:17.046Z,5.53
2023-02-07T23:08:44.354Z,4.95
2023-02-07T23:11:13.103Z,5.03
2023-02-07T23:13:41.232Z,3.95
2023-02-07T23:16:17.017Z,7.80
2023-02-07T23:18:44.288Z,11.27
2023-02-07T23:21:12.300Z,10.35
2023-02-07T23:23:39.867Z,13.85
2023-02-07T23:26:08.551Z,5.53
2023-02-07T23:28:37.311Z,6.13
2023-02-07T23:31:05.986Z,4.80
2023-02-07T23:33:34.098Z,5.75
2023-02-07T23:36:01.990Z,4.43
2023-02-07T23:38:29.426Z,5.03
2023-02-07T23:40:56.917Z,3.75
2023-02-07T23:43:24.759Z,5.38
2023-02-07T23:45:52.530Z,4.50
2023-02-07T23:48:19.826Z,4.25
2023-02-07T23:50:52.831Z,5.05
2023-02-07T23:53:20.640Z,3.28
2023-02-07T23:55:48.980Z,5.45
2023-02-07T23:58:16.744Z,3.50
